Time;durP1;ratioP1;P1;durP2;ratioP2;P2;SDS_P1;SDS_P2;PMS_P1;PMS_P2;Temp;Humidity;BMP_temperature;BMP_pressure;BME280_temperature;BME280_humidity;BME280_pressure;Samples;Min_cycle;Max_cycle;Signal;HPM_P1;HPM_P2
2020/12/15 00:00:24;;;;;;;19.48;11.65;;;7.10;92.70;;;;;;4968247;28;20338;-58
2020/12/15 00:02:50;;;;;;;17.63;11.38;;;7.10;92.90;;;;;;4985335;28;20061;-57
2020/12/15 00:05:15;;;;;;;20.25;11.55;;;7.10;92.70;;;;;;4981842;28;20500;-57
2020/12/15 00:07:41;;;;;;;17.70;11.00;;;7.00;92.60;;;;;;4973663;28;20041;-57
2020/12/15 00:10:06;;;;;;;19.35;10.60;;;7.10;92.70;;;;;;4989929;28;20066;-57
2020/12/15 00:12:32;;;;;;;17.40;11.35;;;7.00;92.70;;;;;;4985342;28;20030;-56
2020/12/15 00:14:57;;;;;;;22.05;10.90;;;7.00;92.70;;;;;;4985983;28;20038;-56
2020/12/15 00:17:23;;;;;;;21.17;10.82;;;7.00;92.70;;;;;;4988264;28;20054;-56
2020/12/15 00:19:48;;;;;;;16.42;11.40;;;7.00;92.70;;;;;;4972884;28;20113;-58
2020/12/15 00:22:14;;;;;;;15.60;9.90;;;7.00;92.70;;;;;;5005675;28;20101;-56
2020/12/15 00:24:39;;;;;;;17.77;10.93;;;7.00;92.70;;;;;;4986543;28;20027;-58
2020/12/15 00:27:05;;;;;;;21.15;10.00;;;7.00;92.70;;;;;;4969411;28;20486;-57
2020/12/15 00:29:30;;;;;;;17.83;11.13;;;7.00;92.80;;;;;;4972087;28;20042;-56
2020/12/15 00:31:56;;;;;;;21.88;10.30;;;7.00;92.70;;;;;;4988164;28;20041;-56
2020/12/15 00:34:21;;;;;;;19.40;9.65;;;7.00;92.70;;;;;;4985411;28;20041;-59
2020/12/15 00:36:47;;;;;;;19.17;10.77;;;7.00;92.70;;;;;;4990335;28;20101;-57
2020/12/15 00:39:12;;;;;;;17.60;10.25;;;7.00;92.70;;;;;;4987667;28;20015;-57
2020/12/15 00:41:39;;;;;;;16.70;10.15;;;6.90;92.70;;;;;;4988665;28;20433;-56
2020/12/15 00:44:04;;;;;;;15.75;10.40;;;7.00;92.70;;;;;;4987389;28;20269;-56
2020/12/15 00:46:30;;;;;;;15.32;9.73;;;7.00;92.70;;;;;;4987163;28;20035;-58
2020/12/15 00:48:55;;;;;;;15.52;9.88;;;6.90;92.70;;;;;;4973982;28;20022;-57
2020/12/15 00:51:21;;;;;;;22.00;11.05;;;6.90;92.70;;;;;;4969357;28;20026;-58
2020/12/15 00:53:47;;;;;;;17.25;10.85;;;6.90;92.70;;;;;;4987803;28;20118;-58
2020/12/15 00:56:13;;;;;;;16.30;9.75;;;6.90;92.70;;;;;;4988829;28;20489;-56
2020/12/15 00:58:39;;;;;;;16.02;9.82;;;6.90;92.70;;;;;;4987259;28;20065;-56
2020/12/15 01:01:04;;;;;;;15.63;10.25;;;6.90;92.70;;;;;;4985818;28;20023;-58
2020/12/15 01:03:30;;;;;;;16.23;10.02;;;6.90;92.70;;;;;;4983808;28;20447;-58
2020/12/15 01:05:56;;;;;;;15.43;9.68;;;6.90;92.70;;;;;;4982798;28;20497;-57
2020/12/15 01:08:21;;;;;;;13.55;9.48;;;6.90;92.80;;;;;;4985802;28;20030;-57
2020/12/15 01:10:47;;;;;;;16.17;9.68;;;6.90;92.80;;;;;;4985012;28;20058;-58
2020/12/15 01:13:12;;;;;;;15.63;9.32;;;6.90;92.70;;;;;;4984089;28;20052;-56
2020/12/15 01:15:38;;;;;;;13.10;9.07;;;6.90;92.80;;;;;;4985000;28;20106;-58
2020/12/15 01:18:03;;;;;;;16.85;9.43;;;6.90;92.80;;;;;;4984972;28;20393;-57
2020/12/15 01:20:29;;;;;;;14.18;9.32;;;6.90;92.80;;;;;;4987311;28;20042;-59
2020/12/15 01:22:54;;;;;;;15.35;9.93;;;6.90;92.80;;;;;;4986316;28;20106;-56
2020/12/15 01:25:20;;;;;;;15.30;9.95;;;6.90;92.80;;;;;;4956240;28;20030;-57
2020/12/15 01:27:45;;;;;;;15.68;9.27;;;6.90;92.80;;;;;;4985044;28;20076;-56
2020/12/15 01:30:11;;;;;;;17.08;9.10;;;6.90;92.80;;;;;;4981767;28;20367;-57
2020/12/15 01:32:36;;;;;;;14.13;9.75;;;6.90;92.80;;;;;;4983793;28;20050;-57
2020/12/15 01:35:02;;;;;;;13.57;9.32;;;6.80;92.80;;;;;;4988669;28;20030;-56
2020/12/15 01:37:28;;;;;;;13.63;8.80;;;6.80;92.80;;;;;;4973173;28;20026;-56
2020/12/15 01:39:53;;;;;;;12.68;8.98;;;6.80;92.80;;;;;;4989328;28;20034;-58
2020/12/15 01:42:19;;;;;;;15.65;9.32;;;6.90;92.90;;;;;;4988341;28;20029;-56
2020/12/15 01:44:44;;;;;;;13.15;9.23;;;6.90;92.80;;;;;;4988998;28;20027;-57
2020/12/15 01:47:11;;;;;;;14.00;10.02;;;6.90;92.80;;;;;;4979645;28;20580;-57
2020/12/15 01:49:36;;;;;;;15.55;10.10;;;6.80;92.80;;;;;;4971758;28;20547;-59
2020/12/15 01:52:02;;;;;;;13.82;9.23;;;6.80;92.70;;;;;;4984542;28;20026;-57
2020/12/15 01:54:27;;;;;;;11.45;8.35;;;6.90;92.80;;;;;;4952787;28;20022;-57
2020/12/15 01:56:54;;;;;;;11.73;9.38;;;6.90;92.80;;;;;;4968924;28;20085;-57
2020/12/15 01:59:19;;;;;;;11.55;8.65;;;6.80;92.80;;;;;;4966274;28;20442;-57
2020/12/15 02:01:45;;;;;;;13.20;9.50;;;6.90;93.10;;;;;;4968467;28;20069;-58
2020/12/15 02:04:11;;;;;;;12.20;9.20;;;6.80;92.80;;;;;;4952090;28;20121;-56
2020/12/15 02:06:36;;;;;;;12.68;8.60;;;6.80;92.80;;;;;;4984109;28;20026;-57
2020/12/15 02:09:04;;;;;;;14.00;9.45;;;6.80;92.80;;;;;;4988701;28;20068;-57
2020/12/15 02:11:30;;;;;;;12.65;8.43;;;6.80;92.80;;;;;;4970584;28;20097;-56
2020/12/15 02:13:55;;;;;;;12.20;8.95;;;6.90;92.80;;;;;;4969845;28;20249;-58
2020/12/15 02:16:21;;;;;;;12.27;8.93;;;6.80;92.80;;;;;;4968306;28;20493;-57
2020/12/15 02:18:46;;;;;;;13.57;8.90;;;6.80;92.80;;;;;;4968551;28;20038;-56
2020/12/15 02:21:12;;;;;;;12.90;9.23;;;6.80;92.80;;;;;;4971034;28;20042;-57
2020/12/15 02:23:37;;;;;;;12.93;9.10;;;6.80;92.90;;;;;;4967362;28;20031;-55
2020/12/15 02:26:05;;;;;;;12.43;8.85;;;6.80;92.90;;;;;;4983858;28;20185;-58
2020/12/15 02:28:30;;;;;;;17.17;9.00;;;6.80;92.90;;;;;;4954600;28;20422;-56
2020/12/15 02:30:56;;;;;;;13.95;9.00;;;6.80;92.90;;;;;;4980978;28;20081;-58
2020/12/15 02:33:21;;;;;;;11.93;8.23;;;6.80;92.90;;;;;;4986544;28;20065;-57
2020/12/15 02:35:47;;;;;;;14.25;9.23;;;6.80;92.90;;;;;;4986171;28;20035;-56
2020/12/15 02:38:12;;;;;;;11.43;7.88;;;6.80;92.90;;;;;;4987050;28;20042;-58
2020/12/15 02:40:38;;;;;;;14.35;9.25;;;6.80;92.90;;;;;;4968511;28;20034;-56
2020/12/15 02:43:03;;;;;;;13.80;8.85;;;6.80;92.90;;;;;;4970622;28;20502;-57
2020/12/15 02:45:29;;;;;;;13.55;8.75;;;6.80;92.90;;;;;;4986013;28;20512;-57
2020/12/15 02:47:54;;;;;;;11.52;8.85;;;6.80;92.80;;;;;;4998735;28;20031;-56
2020/12/15 02:50:23;;;;;;;10.93;8.85;;;6.80;92.80;;;;;;4981417;28;20070;-57
2020/12/15 02:52:49;;;;;;;14.82;8.82;;;6.80;92.90;;;;;;4967198;28;20031;-56
2020/12/15 02:55:15;;;;;;;12.93;8.73;;;6.80;92.90;;;;;;4985638;28;20042;-56
2020/12/15 02:57:40;;;;;;;11.82;8.50;;;6.70;92.80;;;;;;4984557;28;20137;-58
2020/12/15 03:00:10;;;;;;;13.10;8.68;;;6.70;92.80;;;;;;4988033;28;20085;-57
2020/12/15 03:02:36;;;;;;;11.45;8.63;;;6.80;92.80;;;;;;4986295;28;20224;-56
2020/12/15 03:05:01;;;;;;;12.02;7.95;;;6.80;92.90;;;;;;4985335;28;20092;-58
2020/12/15 03:07:27;;;;;;;11.85;8.07;;;6.80;92.90;;;;;;4987337;28;20894;-58
2020/12/15 03:09:53;;;;;;;14.48;10.10;;;6.70;92.80;;;;;;4968846;28;20026;-56
2020/12/15 03:12:19;;;;;;;11.52;8.55;;;6.70;92.80;;;;;;4988233;28;20026;-57
2020/12/15 03:14:46;;;;;;;13.70;7.95;;;6.70;92.80;;;;;;4970899;28;20565;-57
2020/12/15 03:17:12;;;;;;;11.88;8.02;;;6.80;92.90;;;;;;4983256;28;20390;-56
2020/12/15 03:19:37;;;;;;;13.35;8.60;;;6.70;92.90;;;;;;4988038;28;20030;-56
2020/12/15 03:22:03;;;;;;;12.75;8.55;;;6.70;92.90;;;;;;4966903;28;20022;-57
2020/12/15 03:24:28;;;;;;;13.43;8.10;;;6.70;92.90;;;;;;4985814;28;20058;-58
2020/12/15 03:26:54;;;;;;;14.02;8.63;;;6.70;92.90;;;;;;4982608;28;20048;-56
2020/12/15 03:29:19;;;;;;;12.15;8.60;;;6.70;92.90;;;;;;4982613;28;20508;-56
2020/12/15 03:31:45;;;;;;;12.82;8.40;;;6.60;92.80;;;;;;4986900;28;20030;-56
2020/12/15 03:34:10;;;;;;;16.95;8.15;;;6.70;92.90;;;;;;4988617;28;20039;-58
2020/12/15 03:36:36;;;;;;;12.32;8.60;;;6.70;92.90;;;;;;4971826;28;20485;-57
2020/12/15 03:39:02;;;;;;;11.07;8.75;;;6.70;92.90;;;;;;4987897;28;20058;-57
2020/12/15 03:41:27;;;;;;;11.63;8.30;;;6.70;92.90;;;;;;4986044;28;20089;-57
2020/12/15 03:43:53;;;;;;;13.70;9.35;;;6.70;92.90;;;;;;4982112;28;20104;-57
2020/12/15 03:46:18;;;;;;;13.20;8.35;;;6.60;92.90;;;;;;4986604;28;20038;-57
2020/12/15 03:48:44;;;;;;;11.80;8.30;;;6.60;92.90;;;;;;4987344;28;20030;-57
2020/12/15 03:51:09;;;;;;;10.20;7.70;;;6.60;92.90;;;;;;4991635;28;20030;-56
2020/12/15 03:53:35;;;;;;;11.43;8.07;;;6.60;92.90;;;;;;4991934;28;20450;-56
2020/12/15 03:56:00;;;;;;;10.90;8.48;;;6.60;92.90;;;;;;4973865;28;20049;-56
2020/12/15 03:58:26;;;;;;;10.60;7.78;;;6.60;93.20;;;;;;4987393;28;20038;-58
2020/12/15 04:00:51;;;;;;;11.73;8.48;;;6.60;92.90;;;;;;4984937;28;20061;-57
2020/12/15 04:03:17;;;;;;;11.93;8.13;;;6.60;92.90;;;;;;4988863;28;20058;-56
2020/12/15 04:05:42;;;;;;;12.05;9.00;;;6.60;93.00;;;;;;4990608;28;20023;-58
2020/12/15 04:08:08;;;;;;;11.20;8.02;;;6.60;92.90;;;;;;4988422;28;20021;-56
2020/12/15 04:10:33;;;;;;;10.60;8.68;;;6.50;93.00;;;;;;4974870;28;20026;-56
2020/12/15 04:12:59;;;;;;;12.27;8.68;;;6.60;92.90;;;;;;4990095;28;20026;-55
2020/12/15 04:15:25;;;;;;;12.75;8.60;;;6.60;92.90;;;;;;4973156;28;20033;-58
2020/12/15 04:17:50;;;;;;;10.60;8.38;;;6.60;93.00;;;;;;4975131;28;20084;-57
2020/12/15 04:20:16;;;;;;;12.55;8.90;;;6.50;92.90;;;;;;4989710;28;20022;-58
2020/12/15 04:22:41;;;;;;;11.85;8.48;;;6.50;92.90;;;;;;4989524;28;20489;-57
2020/12/15 04:25:07;;;;;;;11.18;8.38;;;6.60;92.90;;;;;;4973877;28;20422;-55
2020/12/15 04:27:32;;;;;;;11.88;7.93;;;6.50;92.90;;;;;;4991033;28;20022;-56
2020/12/15 04:29:58;;;;;;;12.57;7.93;;;6.50;92.90;;;;;;4987634;28;20113;-57
2020/12/15 04:32:23;;;;;;;11.77;8.65;;;6.50;92.90;;;;;;4989436;28;20031;-56
2020/12/15 04:34:49;;;;;;;11.32;8.70;;;6.50;92.90;;;;;;4966011;28;20027;-57
2020/12/15 04:37:15;;;;;;;11.80;8.45;;;6.50;92.90;;;;;;4990339;28;20490;-58
2020/12/15 04:39:40;;;;;;;10.18;8.20;;;6.50;92.90;;;;;;4989676;28;20117;-57
2020/12/15 04:42:06;;;;;;;12.32;8.65;;;6.50;92.90;;;;;;4990852;28;20112;-56
2020/12/15 04:44:35;;;;;;;11.65;8.80;;;6.50;93.00;;;;;;4990268;28;20563;-56
2020/12/15 04:47:19;;;;;;;14.30;8.93;;;6.50;93.00;;;;;;4983390;28;20061;-57
2020/12/15 04:50:07;;;;;;;12.82;9.25;;;6.50;93.00;;;;;;4969431;28;20531;-57
2020/12/15 04:52:58;;;;;;;11.70;8.32;;;6.50;92.90;;;;;;4987612;28;20025;-58
2020/12/15 04:55:24;;;;;;;11.20;8.45;;;6.50;92.90;;;;;;4992622;28;20030;-56
2020/12/15 04:57:50;;;;;;;9.93;8.15;;;6.50;92.90;;;;;;4985726;28;20022;-57
2020/12/15 05:00:18;;;;;;;12.43;8.63;;;6.50;92.90;;;;;;4961094;28;20037;-56
2020/12/15 05:02:44;;;;;;;10.98;8.43;;;6.50;92.90;;;;;;4970118;28;20019;-56
2020/12/15 05:05:10;;;;;;;12.82;8.25;;;6.50;92.90;;;;;;4984787;28;20547;-56
2020/12/15 05:07:43;;;;;;;13.35;9.40;;;6.40;92.90;;;;;;4987507;28;20031;-56
2020/12/15 05:10:09;;;;;;;11.82;7.72;;;6.50;92.90;;;;;;4981621;28;20109;-58
2020/12/15 05:12:34;;;;;;;12.85;9.02;;;6.50;92.90;;;;;;4961528;28;20025;-58
2020/12/15 05:15:01;;;;;;;10.73;8.00;;;6.50;92.90;;;;;;4970203;28;20386;-58
2020/12/15 05:17:32;;;;;;;11.75;8.10;;;6.40;92.90;;;;;;4982433;28;20426;-56
2020/12/15 05:19:58;;;;;;;10.00;8.45;;;6.40;92.90;;;;;;4969788;28;20045;-56
2020/12/15 05:22:24;;;;;;;9.05;7.80;;;6.40;92.90;;;;;;4986481;28;20023;-56
2020/12/15 05:24:50;;;;;;;12.80;8.55;;;6.40;92.90;;;;;;4988395;28;20117;-56
2020/12/15 05:27:29;;;;;;;8.88;7.97;;;6.40;92.90;;;;;;4987903;28;20282;-56
2020/12/15 05:30:06;;;;;;;10.32;7.97;;;6.40;92.90;;;;;;4997775;28;20020;-57
2020/12/15 05:32:32;;;;;;;10.75;8.60;;;6.40;92.90;;;;;;4971451;28;20018;-56
2020/12/15 05:35:07;;;;;;;12.23;8.30;;;6.40;92.90;;;;;;4970035;28;20030;-56
2020/12/15 05:37:33;;;;;;;9.60;7.38;;;6.40;92.90;;;;;;4976081;28;20031;-58
2020/12/15 05:39:59;;;;;;;10.27;8.63;;;6.40;92.90;;;;;;4975624;28;20118;-58
2020/12/15 05:42:25;;;;;;;10.98;8.25;;;6.40;93.00;;;;;;4978893;28;20031;-57
2020/12/15 05:44:50;;;;;;;10.15;8.00;;;6.40;93.00;;;;;;5004929;28;20393;-57
2020/12/15 05:47:22;;;;;;;11.93;7.90;;;6.40;93.00;;;;;;4972944;28;20034;-56
2020/12/15 05:49:47;;;;;;;9.57;7.63;;;6.40;93.30;;;;;;4987936;28;20058;-57
2020/12/15 05:52:12;;;;;;;10.60;8.48;;;6.40;93.00;;;;;;4980582;28;20427;-58
2020/12/15 05:54:38;;;;;;;10.07;8.43;;;6.40;93.00;;;;;;5000670;28;20026;-56
2020/12/15 05:57:05;;;;;;;9.20;7.95;;;6.40;93.00;;;;;;4983476;28;20173;-58
2020/12/15 05:59:30;;;;;;;11.70;8.25;;;6.30;92.90;;;;;;4976547;28;20501;-56
2020/12/15 06:02:06;;;;;;;11.05;8.38;;;6.30;93.00;;;;;;4967300;28;20030;-56
2020/12/15 06:04:32;;;;;;;10.27;7.72;;;6.30;93.00;;;;;;4975385;28;20077;-55
2020/12/15 06:06:59;;;;;;;11.65;8.35;;;6.30;93.00;;;;;;4967914;28;20038;-58
2020/12/15 06:09:24;;;;;;;10.43;8.00;;;6.30;93.00;;;;;;4959815;28;20386;-58
2020/12/15 06:11:50;;;;;;;10.43;7.80;;;6.30;93.00;;;;;;4944106;28;20130;-56
2020/12/15 06:14:15;;;;;;;9.95;7.88;;;6.30;93.00;;;;;;4984281;28;20042;-57
2020/12/15 06:16:41;;;;;;;10.48;8.02;;;6.30;93.00;;;;;;4962655;28;20035;-56
2020/12/15 06:19:08;;;;;;;11.25;8.32;;;6.30;93.00;;;;;;4964103;28;20166;-58
2020/12/15 06:21:54;;;;;;;9.88;8.25;;;6.30;93.00;;;;;;4986724;28;20026;-56
2020/12/15 06:24:24;;;;;;;11.45;8.65;;;6.30;92.90;;;;;;4993104;28;20047;-57
2020/12/15 06:26:54;;;;;;;9.38;7.72;;;6.30;92.90;;;;;;4978766;28;20023;-58
2020/12/15 06:29:35;;;;;;;9.98;8.23;;;6.30;93.00;;;;;;4985614;28;20030;-58
2020/12/15 06:32:02;;;;;;;10.63;8.02;;;6.30;93.00;;;;;;4964356;28;20042;-58
2020/12/15 06:34:31;;;;;;;9.90;7.72;;;6.30;93.00;;;;;;4970727;28;20022;-56
2020/12/15 06:36:57;;;;;;;9.93;8.48;;;6.30;93.00;;;;;;4960100;28;20382;-56
2020/12/15 06:39:24;;;;;;;9.82;7.82;;;6.30;93.00;;;;;;4993273;28;20073;-56
2020/12/15 06:42:06;;;;;;;10.60;8.07;;;6.30;93.00;;;;;;4967753;28;20447;-58
2020/12/15 06:44:36;;;;;;;10.57;7.80;;;6.30;93.00;;;;;;4969040;28;20105;-56
2020/12/15 06:47:02;;;;;;;9.55;7.88;;;6.30;93.00;;;;;;4984343;28;20489;-57
2020/12/15 06:49:32;;;;;;;9.02;7.55;;;6.30;93.00;;;;;;4984184;28;20034;-58
2020/12/15 06:52:05;;;;;;;10.95;7.93;;;6.30;92.90;;;;;;4967336;28;20058;-58
2020/12/15 06:54:38;;;;;;;11.27;8.05;;;6.30;93.00;;;;;;4987078;28;20022;-58
2020/12/15 06:57:04;;;;;;;10.82;8.13;;;6.30;93.00;;;;;;4978303;28;20080;-57
2020/12/15 06:59:37;;;;;;;11.13;8.70;;;6.30;93.00;;;;;;4975988;28;20049;-57
2020/12/15 07:02:08;;;;;;;11.85;8.77;;;6.30;93.10;;;;;;4961250;28;20034;-58
2020/12/15 07:04:33;;;;;;;9.55;7.85;;;6.30;93.10;;;;;;4989226;28;20402;-58
2020/12/15 07:06:59;;;;;;;11.43;8.40;;;6.30;93.00;;;;;;4985425;28;20027;-56
2020/12/15 07:09:24;;;;;;;11.73;8.23;;;6.30;93.10;;;;;;4979064;28;20053;-57
2020/12/15 07:11:50;;;;;;;11.82;8.02;;;6.30;93.10;;;;;;4966172;28;20392;-57
2020/12/15 07:14:20;;;;;;;9.75;8.13;;;6.30;93.10;;;;;;4970232;28;20270;-56
2020/12/15 07:16:46;;;;;;;10.88;8.23;;;6.30;93.10;;;;;;4987542;28;20031;-58
2020/12/15 07:19:11;;;;;;;10.50;7.80;;;6.30;93.10;;;;;;4970843;28;20405;-58
2020/12/15 07:21:37;;;;;;;10.77;7.75;;;6.30;93.10;;;;;;4992237;28;20029;-58
2020/12/15 07:24:02;;;;;;;11.55;8.07;;;6.30;93.10;;;;;;4990285;28;20056;-55
2020/12/15 07:26:28;;;;;;;10.60;8.32;;;6.30;93.10;;;;;;4990282;28;20026;-58
2020/12/15 07:28:53;;;;;;;9.65;7.90;;;6.30;93.10;;;;;;4992851;28;20441;-56
2020/12/15 07:31:26;;;;;;;12.38;8.38;;;6.30;93.10;;;;;;4974750;28;20118;-57
2020/12/15 07:34:11;;;;;;;10.02;7.82;;;6.30;93.10;;;;;;4952375;28;20034;-58
2020/12/15 07:36:37;;;;;;;10.85;8.57;;;6.30;93.10;;;;;;5001630;28;20489;-56
2020/12/15 07:39:04;;;;;;;11.93;8.70;;;6.30;93.10;;;;;;4984153;28;20492;-56
2020/12/15 07:41:30;;;;;;;11.32;8.45;;;6.30;93.10;;;;;;4967653;28;20030;-56
2020/12/15 07:43:55;;;;;;;11.48;8.30;;;6.30;93.10;;;;;;4984995;28;20050;-57
2020/12/15 07:46:25;;;;;;;8.70;7.47;;;6.30;93.10;;;;;;4984352;28;20026;-56
2020/12/15 07:48:52;;;;;;;9.32;7.65;;;6.30;93.00;;;;;;4988568;28;20026;-56
2020/12/15 07:51:17;;;;;;;8.85;7.32;;;6.30;93.00;;;;;;4969479;28;20023;-58
2020/12/15 07:53:54;;;;;;;10.57;7.75;;;6.30;93.00;;;;;;4985296;28;20101;-57
2020/12/15 07:56:20;;;;;;;9.40;8.13;;;6.30;93.00;;;;;;4985254;28;20034;-57
2020/12/15 07:58:50;;;;;;;12.00;8.43;;;6.30;93.00;;;;;;4954926;28;20034;-55
2020/12/15 08:01:24;;;;;;;11.02;8.25;;;6.30;93.00;;;;;;5002583;28;20225;-58
2020/12/15 08:04:00;;;;;;;9.77;7.38;;;6.40;93.00;;;;;;4981225;28;20520;-56
2020/12/15 08:06:27;;;;;;;10.75;7.40;;;6.30;92.90;;;;;;4981524;28;20054;-56
2020/12/15 08:08:53;;;;;;;10.07;7.65;;;6.40;92.90;;;;;;4984897;28;20019;-58
2020/12/15 08:11:19;;;;;;;10.18;7.60;;;6.40;93.00;;;;;;4970208;28;20034;-56
2020/12/15 08:13:46;;;;;;;13.40;8.57;;;6.40;93.00;;;;;;4987738;28;20477;-60
2020/12/15 08:16:12;;;;;;;21.05;7.93;;;6.40;92.90;;;;;;4970588;28;20019;-56
2020/12/15 08:18:37;;;;;;;15.05;9.43;;;6.40;92.90;;;;;;4959960;28;20049;-58
2020/12/15 08:21:04;;;;;;;12.98;8.82;;;6.40;92.90;;;;;;4998060;28;20212;-57
2020/12/15 08:23:29;;;;;;;16.77;8.98;;;6.40;92.90;;;;;;4982747;28;20108;-58
2020/12/15 08:25:56;;;;;;;16.85;9.20;;;6.50;93.00;;;;;;4972449;28;20080;-56
2020/12/15 08:28:22;;;;;;;24.45;9.10;;;6.50;93.10;;;;;;4996428;28;20019;-57
2020/12/15 08:30:48;;;;;;;24.83;9.43;;;6.50;93.10;;;;;;4978102;28;20067;-56
2020/12/15 08:33:24;;;;;;;17.30;8.07;;;6.50;93.10;;;;;;4957232;28;20023;-58
2020/12/15 08:35:49;;;;;;;;;;;6.50;93.10;;;;;;4964740;28;20038;-58
2020/12/15 08:38:15;;;;;;;23.88;9.40;;;6.50;93.00;;;;;;4984533;28;19910;-57
2020/12/15 08:40:42;;;;;;;19.02;9.70;;;6.50;93.00;;;;;;4986301;28;20062;-57
2020/12/15 08:43:08;;;;;;;36.85;9.65;;;6.50;93.00;;;;;;4964094;28;20042;-58
2020/12/15 08:45:33;;;;;;;30.30;10.57;;;6.50;93.00;;;;;;4983221;28;20121;-55
2020/12/15 08:47:59;;;;;;;29.35;9.63;;;6.60;93.10;;;;;;4987735;28;20185;-59
2020/12/15 08:50:26;;;;;;;45.05;11.02;;;6.60;93.10;;;;;;4970902;28;20698;-57
2020/12/15 08:52:51;;;;;;;49.40;11.25;;;6.70;93.10;;;;;;4972199;28;20022;-57
2020/12/15 08:55:27;;;;;;;39.50;10.35;;;6.70;93.10;;;;;;4984654;28;20608;-57
2020/12/15 08:58:11;;;;;;;;;;;6.80;93.20;;;;;;4966805;28;20037;-57
2020/12/15 09:00:39;;;;;;;47.35;12.05;;;6.70;93.20;;;;;;4988502;28;19992;-58
2020/12/15 09:03:15;;;;;;;52.25;12.80;;;6.80;93.20;;;;;;4981578;28;20022;-58
2020/12/15 09:05:53;;;;;;;49.38;12.18;;;6.50;93.30;;;;;;4983359;28;20125;-57
2020/12/15 09:08:20;;;;;;;60.22;14.48;;;6.80;93.40;;;;;;4965150;28;20181;-57
2020/12/15 09:10:47;;;;;;;73.25;15.88;;;6.90;93.50;;;;;;4968343;28;20031;-60
2020/12/15 09:13:12;;;;;;;67.55;13.88;;;6.90;93.50;;;;;;4968542;28;20200;-58
2020/12/15 09:15:55;;;;;;;65.45;13.13;;;7.00;93.50;;;;;;4966148;28;20047;-60
2020/12/15 09:18:30;;;;;;;70.50;13.25;;;7.00;93.40;;;;;;4964908;28;20023;-57
2020/12/15 09:20:56;;;;;;;;;;;7.00;93.50;;;;;;5004691;28;20049;-60
2020/12/15 09:23:27;;;;;;;78.53;14.85;;;7.10;93.70;;;;;;4972265;28;20365;-55
2020/12/15 09:25:55;;;;;;;73.82;16.17;;;7.10;93.60;;;;;;4983177;28;20077;-59
2020/12/15 09:28:27;;;;;;;71.30;15.38;;;7.10;93.50;;;;;;4989102;28;20066;-58
2020/12/15 09:30:53;;;;;;;111.13;17.00;;;7.20;93.60;;;;;;4969007;28;20444;-60
2020/12/15 09:33:19;;;;;;;182.10;25.05;;;7.20;93.60;;;;;;4988628;28;20023;-57
2020/12/15 09:35:44;;;;;;;105.22;18.73;;;7.20;93.60;;;;;;4984351;28;20486;-56
2020/12/15 09:38:10;;;;;;;98.50;16.55;;;7.30;93.60;;;;;;4986470;28;20037;-58
2020/12/15 09:40:36;;;;;;;147.77;20.15;;;7.30;93.60;;;;;;4968182;28;20045;-56
2020/12/15 09:43:01;;;;;;;135.07;22.25;;;7.30;93.70;;;;;;4986421;28;20074;-56
2020/12/15 09:45:27;;;;;;;146.85;21.13;;;7.30;93.70;;;;;;4988832;28;20038;-57
2020/12/15 09:47:52;;;;;;;158.23;23.38;;;7.40;93.80;;;;;;5003290;28;20027;-57
2020/12/15 09:50:18;;;;;;;179.48;24.80;;;7.40;94.00;;;;;;4985313;28;20518;-56
2020/12/15 09:52:43;;;;;;;133.77;19.00;;;7.50;93.90;;;;;;4987597;28;20065;-56
2020/12/15 09:55:09;;;;;;;115.97;19.95;;;7.50;93.70;;;;;;4986604;28;20033;-56
2020/12/15 09:57:34;;;;;;;129.27;23.48;;;7.50;93.60;;;;;;4988538;28;20128;-56
2020/12/15 10:00:00;;;;;;;143.85;20.48;;;7.60;93.70;;;;;;4991114;28;20022;-57
2020/12/15 10:02:25;;;;;;;178.90;26.73;;;7.60;93.70;;;;;;5001756;28;20054;-57
2020/12/15 10:04:51;;;;;;;157.35;22.15;;;7.60;93.80;;;;;;4984377;28;20033;-57
2020/12/15 10:07:18;;;;;;;157.98;23.63;;;7.60;93.70;;;;;;4989367;28;20061;-56
2020/12/15 10:09:44;;;;;;;185.13;23.40;;;7.70;93.80;;;;;;4994364;28;20069;-58
2020/12/15 10:12:09;;;;;;;185.30;22.45;;;7.70;93.70;;;;;;4990637;28;20413;-58
2020/12/15 10:14:35;;;;;;;142.20;21.45;;;7.70;93.80;;;;;;4988501;28;20026;-58
2020/12/15 10:17:00;;;;;;;142.88;21.25;;;7.70;93.70;;;;;;4967749;28;20041;-58
2020/12/15 10:19:26;;;;;;;139.65;23.38;;;7.80;93.70;;;;;;4984360;28;20061;-61
2020/12/15 10:21:56;;;;;;;166.50;22.50;;;7.80;93.70;;;;;;4988388;28;20054;-57
2020/12/15 10:24:21;;;;;;;167.63;23.67;;;7.80;93.70;;;;;;4978163;28;20125;-57
2020/12/15 10:26:47;;;;;;;162.98;24.90;;;7.80;93.80;;;;;;4953506;28;20038;-56
2020/12/15 10:29:12;;;;;;;152.82;24.70;;;7.90;93.80;;;;;;4964766;28;20031;-57
2020/12/15 10:31:38;;;;;;;147.18;22.50;;;7.90;93.80;;;;;;4981457;28;20077;-59
2020/12/15 10:34:03;;;;;;;149.02;23.45;;;7.90;93.80;;;;;;4983403;28;20498;-62
2020/12/15 10:36:29;;;;;;;123.03;20.73;;;7.90;93.80;;;;;;4981294;28;20038;-57
2020/12/15 10:38:56;;;;;;;157.27;23.02;;;7.90;93.80;;;;;;4985305;28;20040;-57
2020/12/15 10:41:26;;;;;;;120.57;22.38;;;7.90;93.90;;;;;;4979608;28;20468;-57
2020/12/15 10:43:51;;;;;;;143.23;22.48;;;8.00;93.90;;;;;;4984193;28;20544;-58
2020/12/15 10:46:24;;;;;;;174.20;25.58;;;8.00;93.90;;;;;;4982447;28;20034;-58
2020/12/15 10:48:50;;;;;;;130.50;20.38;;;8.00;93.90;;;;;;4969631;28;20023;-56
2020/12/15 10:51:15;;;;;;;134.90;22.10;;;8.00;94.00;;;;;;4983984;28;20509;-66
2020/12/15 10:53:41;;;;;;;146.30;20.73;;;8.00;93.90;;;;;;4989048;28;20038;-58
2020/12/15 10:56:06;;;;;;;135.57;21.52;;;8.10;93.90;;;;;;4985345;28;20041;-58
2020/12/15 10:58:32;;;;;;;114.90;20.13;;;8.10;93.80;;;;;;4984633;28;20030;-57
2020/12/15 11:00:57;;;;;;;104.15;18.75;;;8.10;93.70;;;;;;4984758;28;20868;-56
2020/12/15 11:03:23;;;;;;;128.23;21.65;;;8.10;93.70;;;;;;4985071;28;20413;-56
2020/12/15 11:05:48;;;;;;;135.60;20.73;;;8.10;93.80;;;;;;4982921;28;20466;-57
2020/12/15 11:08:14;;;;;;;134.13;20.13;;;8.20;93.90;;;;;;4964091;28;20081;-56
2020/12/15 11:10:39;;;;;;;143.80;23.48;;;8.20;93.80;;;;;;4979128;28;20042;-61
2020/12/15 11:13:05;;;;;;;142.13;23.40;;;8.20;93.80;;;;;;4984783;28;20058;-56
2020/12/15 11:15:30;;;;;;;120.75;20.40;;;8.20;93.70;;;;;;4985596;28;20083;-56
2020/12/15 11:17:56;;;;;;;117.65;19.55;;;8.20;93.70;;;;;;4985186;28;20052;-57
2020/12/15 11:20:21;;;;;;;113.15;21.38;;;8.20;93.60;;;;;;4956698;28;20026;-57
2020/12/15 11:22:47;;;;;;;115.20;21.95;;;8.30;93.60;;;;;;4985119;28;20030;-62
2020/12/15 11:25:15;;;;;;;114.65;21.40;;;8.20;93.60;;;;;;4983461;28;20060;-58
2020/12/15 11:27:40;;;;;;;124.20;21.38;;;8.30;93.70;;;;;;4971898;28;20507;-58
2020/12/15 11:30:06;;;;;;;134.45;21.67;;;8.30;93.60;;;;;;4986554;28;20114;-58
2020/12/15 11:32:31;;;;;;;99.97;19.92;;;8.40;93.60;;;;;;4978992;28;20027;-59
2020/12/15 11:34:57;;;;;;;129.13;19.75;;;8.30;93.60;;;;;;4979076;28;20026;-60
2020/12/15 11:37:23;;;;;;;124.82;19.23;;;8.40;93.50;;;;;;4979492;28;20054;-60
2020/12/15 11:39:49;;;;;;;118.75;19.95;;;8.40;93.50;;;;;;4985414;28;20030;-59
2020/12/15 11:42:15;;;;;;;116.57;19.63;;;8.40;93.50;;;;;;4984877;28;20443;-58
2020/12/15 11:44:41;;;;;;;113.40;19.67;;;8.40;93.40;;;;;;4984007;28;20089;-57
2020/12/15 11:47:06;;;;;;;96.10;18.98;;;8.50;93.40;;;;;;4980246;28;20510;-58
2020/12/15 11:49:32;;;;;;;127.82;20.90;;;8.50;93.40;;;;;;4981232;28;20513;-59
2020/12/15 11:51:57;;;;;;;101.15;19.80;;;8.50;93.30;;;;;;4981709;28;20030;-59
2020/12/15 11:54:23;;;;;;;125.05;22.35;;;8.60;93.50;;;;;;4982098;28;20073;-58
2020/12/15 11:56:52;;;;;;;167.48;22.13;;;8.60;93.50;;;;;;4977890;28;20073;-57
2020/12/15 11:59:18;;;;;;;122.93;21.40;;;8.60;93.40;;;;;;4976775;28;20104;-58
2020/12/15 12:01:43;;;;;;;148.77;23.17;;;8.60;93.40;;;;;;4980656;28;20509;-57
2020/12/15 12:04:09;;;;;;;133.88;20.77;;;8.60;93.40;;;;;;4981067;28;20055;-60
2020/12/15 12:06:34;;;;;;;110.65;20.58;;;8.60;93.40;;;;;;4968520;28;20074;-60
2020/12/15 12:09:01;;;;;;;138.88;23.23;;;8.60;93.40;;;;;;4984182;28;20048;-59
2020/12/15 12:11:27;;;;;;;119.95;20.65;;;8.70;93.50;;;;;;4979080;28;20018;-59
2020/12/15 12:13:52;;;;;;;121.88;22.20;;;8.70;93.50;;;;;;4980800;28;20018;-60
2020/12/15 12:16:17;;;;;;;125.63;20.83;;;8.70;93.50;;;;;;4978933;28;20030;-58
2020/12/15 12:18:43;;;;;;;134.32;21.38;;;8.70;93.40;;;;;;4983800;28;20038;-59
2020/12/15 12:21:08;;;;;;;121.72;23.55;;;8.70;93.40;;;;;;4981905;28;20031;-58
2020/12/15 12:23:34;;;;;;;145.00;23.52;;;8.80;93.50;;;;;;4978777;28;20684;-59
2020/12/15 12:26:00;;;;;;;156.15;24.42;;;8.70;93.50;;;;;;4982720;28;20022;-59
2020/12/15 12:28:25;;;;;;;141.65;23.73;;;8.70;93.50;;;;;;4977304;28;20034;-60
2020/12/15 12:30:51;;;;;;;153.73;22.95;;;8.70;93.60;;;;;;4985067;28;20529;-59
2020/12/15 12:33:16;;;;;;;158.38;23.63;;;8.80;93.60;;;;;;4983897;28;20042;-57
2020/12/15 12:35:42;;;;;;;154.48;23.63;;;8.80;93.60;;;;;;4979799;28;20101;-58
2020/12/15 12:38:11;;;;;;;149.27;23.73;;;8.80;93.60;;;;;;4982863;28;20132;-58
2020/12/15 12:40:37;;;;;;;170.80;24.23;;;8.80;93.60;;;;;;4984777;28;20381;-58